Crestmore, California
Current Conditions -  °F | °C
As of 9:53 AM on Monday 24 Nov 2014 (Local Time) from KRAL Reporting Station
Clear Clear  
Wind Chill: 70°   Ceiling: Unl
Heat Index: 70°   Visibility: 10mi
Dew Point: 13°   Wind: 5mph
Humidity: 11%   Direction: 110°ESE
Pressure: 30.27"   Gusts: NA
Location:  34.0579°N, 117.395°W
Report Text: KRAL 241753Z 11004KT 10SM CLR 21/M11 A3027 RMK AO2 SLP238 T02111106 10211 20072 51018
Loading
Personal Weather Stations






























Interactive Weather Map New forecast layout! Learn more

10-Day Weather Forecast

Advertisements
Track Severe Weather on mobile